Terminal Aerodrome Forecast
Issued by NWS

Home | Current Version | Previous Version | Text Only | Print | Product List | Glossary On
Versions: 1 2 3 4 5 6 7 8 9 10 11 12 13 14 15 16 17 18 19 20 21 22 23 24 25 26 27 28 29 30 31 32 33 34 35 36 37 38
472
FTAK31 PANC 061140
TAFADQ
TAF
PADQ 061140Z 0612/0712 25006KT P6SM SCT035
     FM061800 29006KT P6SM SCT035 SCT060
     FM070000 09006KT P6SM VCSH SCT025 BKN060
     FM070500 10010G20KT P6SM -SHRA SCT015 BKN025=

USA.gov is the U.S. government's official web portal to all federal, state and local government web resources and services.